Latest Weather Observations for Coldstream

IDV60801

Issued at 6:02 am EST Monday 3 August 2015 (issued every 30 minutes, with the page automatically refreshed every 10 minutes)

About weather observations | Map of weather stations | Latest weather observations for VIC | Other Formats
Station Details ID: 086383 Name: COLDSTREAM Lat: -37.72 Lon: 145.41 Height: 83.0 m
Data from the previous 72 hours. | See also: Recent months at Coldstream
Date/Time
EST
Temp
°C
App
Temp
°C
Dew
Point
Rel
Hum
%
Delta-T
°C
Wind Press
QNH
hPa
Press
MSL
hPa
Rain
since 9 am
mm
Dir
 
Spd
km/h
Gust
km/h
Spd
kts
Gust
kts
03/06:00am 7.5 4.5 5.8 89 0.8 NW 11 17 6 9 1013.2 1013.4 10.4
03/05:30am 7.5 4.2 6.3 92 0.5 WNW 13 20 7 11 1013.4 1013.6 10.4
03/05:00am 7.5 4.9 6.3 92 0.5 N 9 15 5 8 1012.8 1013.0 9.8
03/04:30am 7.9 4.9 6.0 88 0.9 WNW 11 19 6 10 1013.1 1013.3 9.8
03/04:00am 8.4 3.8 5.5 82 1.3 NW 19 33 10 18 1012.6 1012.8 9.2
03/03:30am 8.6 3.0 5.2 79 1.5 NW 24 44 13 24 1012.1 1012.3 9.2
03/03:00am 9.4 4.4 4.4 71 2.2 NW 20 35 11 19 1012.2 1012.4 9.2
03/02:30am 9.4 4.5 4.2 70 2.3 NW 19 30 10 16 1012.3 1012.5 9.2
03/02:00am 8.9 4.5 4.7 75 1.9 NNW 17 28 9 15 1012.2 1012.4 9.2
03/01:30am 8.5 4.5 4.7 77 1.7 NNW 15 20 8 11 1012.5 1012.7 9.2
03/01:00am 8.8 4.3 4.4 74 1.9 NW 17 28 9 15 1012.8 1013.0 9.2
03/12:30am 8.9 5.1 4.1 72 2.1 NW 13 26 7 14 1012.9 1013.1 9.2
03/12:00am 8.9 5.2 4.3 73 2.0 NW 13 26 7 14 1012.9 1013.1 9.2
 
Date/Time
EST
Temp
°C
App
Temp
°C
Dew
Point
Rel
Hum
%
Delta-T
°C
Wind Press
QNH
hPa
Press
MSL
hPa
Rain
since 9 am
mm
Dir
 
Spd
km/h
Gust
km/h
Spd
kts
Gust
kts
02/11:30pm 8.3 5.4 4.5 77 1.7 NNW 9 17 5 9 1013.3 1013.5 9.2
02/11:00pm 8.8 4.2 3.8 71 2.2 WNW 17 24 9 13 1013.1 1013.3 9.2
02/10:30pm 8.6 3.0 5.4 80 1.4 W 24 35 13 19 1013.2 1013.4 9.2
02/10:00pm 8.6 5.1 7.2 91 0.7 WNW 15 22 8 12 1013.0 1013.2 9.2
02/09:30pm 8.5 5.9 7.9 96 0.3 NW 11 17 6 9 1012.5 1012.7 9.2
02/09:00pm 8.4 5.0 7.6 95 0.4 WNW 15 22 8 12 1012.5 1012.7 8.8
02/08:30pm 8.3 4.9 7.5 95 0.4 W 15 22 8 12 1012.6 1012.8 6.8
02/08:00pm 8.4 3.6 7.5 94 0.4 W 22 35 12 19 1012.6 1012.8 5.4
02/07:42pm 8.3 4.5 7.4 94 0.4 WSW 17 52 9 28 1012.7 1012.9 4.2
02/07:30pm 9.0 7.8 8.2 95 0.4 WNW 4 9 2 5 1012.2 1012.4 2.2
02/07:00pm 9.3 6.7 7.7 90 0.8 W 11 19 6 10 1012.2 1012.4 1.2
02/06:30pm 9.8 5.3 6.9 82 1.4 WNW 20 37 11 20 1011.5 1011.6 0.4
02/06:00pm 10.8 6.5 5.1 68 2.6 NNW 17 30 9 16 1010.7 1010.8 0.0
02/05:30pm 11.3 6.8 4.3 62 3.2 N 17 24 9 13 1010.2 1010.3 0.0
02/05:00pm 11.6 7.5 4.3 61 3.3 NNW 15 22 8 12 1010.4 1010.5 0.0
02/04:30pm 12.0 6.5 3.8 57 3.7 NNW 22 35 12 19 1010.3 1010.4 0.0
02/04:00pm 11.9 6.8 3.9 58 3.6 NNW 20 28 11 15 1010.5 1010.6 0.0
02/03:30pm 12.2 7.1 3.9 57 3.7 NNW 20 33 11 18 1010.5 1010.6 0.0
02/03:00pm 12.1 7.5 3.9 57 3.7 NNW 17 32 9 17 1010.6 1010.7 0.0
02/02:30pm 11.9 6.7 3.4 56 3.8 NNW 20 37 11 20 1010.6 1010.7 0.0
02/02:00pm 11.6 5.9 3.1 56 3.7 NNW 22 33 12 18 1010.6 1010.7 0.0
02/01:30pm 13.1 8.1 4.5 56 4.0 NNW 20 35 11 19 1010.9 1011.0 0.0
02/01:00pm 12.4 7.2 3.4 54 4.0 NW 20 30 11 16 1011.4 1011.5 0.0
02/12:30pm 12.3 8.1 4.0 57 3.7 NW 15 24 8 13 1011.8 1012.0 0.0
02/12:00pm 11.8 6.9 5.0 63 3.1 NW 20 33 11 18 1012.4 1012.6 0.0
02/11:30am 10.7 5.1 3.5 61 3.2 NW 22 32 12 17 1012.9 1013.1 0.0
02/11:00am 11.3 6.1 3.3 58 3.5 NW 20 35 11 19 1013.2 1013.4 0.0
02/10:30am 11.1 7.0 4.3 63 3.1 NW 15 24 8 13 1013.3 1013.5 0.0
02/10:00am 9.5 5.7 3.9 68 2.5 NNW 13 22 7 12 1013.3 1013.5 0.0
02/09:30am 8.7 5.8 4.5 75 1.9 N 9 15 5 8 1013.4 1013.6 0.0
02/09:00am 7.0 3.9 3.6 79 1.5 N 9 13 5 7 1013.5 1013.7 0.6
02/08:30am 7.0 4.0 4.1 82 1.3 N 9 15 5 8 1013.5 1013.7 0.6
02/08:00am 6.0 3.0 4.0 87 0.9 N 9 13 5 7 1013.7 1013.9 0.6
02/07:30am 5.7 3.4 4.8 94 0.4 NNW 6 11 3 6 1013.8 1014.0 0.6
02/07:00am 5.5 4.4 5.1 97 0.2 CALM 0 6 0 3 1013.9 1014.1 0.6
02/06:30am 5.5 4.4 5.1 97 0.2 CALM 0 0 0 0 1013.7 1013.9 0.6
02/06:00am 5.6 4.5 5.2 97 0.2 CALM 0 0 0 0 1013.6 1013.8 0.6
02/05:30am 5.5 4.4 4.9 96 0.3 CALM 0 0 0 0 1013.6 1013.8 0.4
02/05:00am 5.5 4.4 4.9 96 0.3 CALM 0 0 0 0 1013.4 1013.6 0.4
02/04:30am 5.7 4.6 5.0 95 0.3 CALM 0 0 0 0 1013.4 1013.6 0.4
02/04:00am 5.9 3.7 5.3 96 0.3 SW 6 13 3 7 1013.7 1013.9 0.4
02/03:30am 5.8 4.8 5.4 97 0.2 CALM 0 0 0 0 1013.9 1014.1 0.4
02/03:00am 5.9 4.9 5.6 98 0.1 CALM 0 0 0 0 1014.6 1014.7 0.4
02/02:30am 5.9 4.9 5.6 98 0.1 CALM 0 0 0 0 1014.8 1014.9 0.4
02/02:00am 5.7 4.6 5.3 97 0.2 CALM 0 0 0 0 1014.9 1015.0 0.4
02/01:30am 5.6 4.1 5.2 97 0.2 SE 2 6 1 3 1015.1 1015.2 0.4
02/01:00am 5.5 4.4 5.1 97 0.2 CALM 0 0 0 0 1015.6 1015.7 0.4
02/12:30am 5.5 4.4 5.1 97 0.2 CALM 0 0 0 0 1016.2 1016.3 0.4
02/12:00am 5.8 4.8 5.4 97 0.2 CALM 0 0 0 0 1016.6 1016.7 0.4
 
Date/Time
EST
Temp
°C
App
Temp
°C
Dew
Point
Rel
Hum
%
Delta-T
°C
Wind Press
QNH
hPa
Press
MSL
hPa
Rain
since 9 am
mm
Dir
 
Spd
km/h
Gust
km/h
Spd
kts
Gust
kts
01/11:30pm 5.5 4.4 5.1 97 0.2 CALM 0 0 0 0 1015.5 1015.6 0.4
01/11:00pm 5.7 4.6 5.3 97 0.2 CALM 0 0 0 0 1016.6 1016.7 0.4
01/10:30pm 5.6 4.2 5.3 98 0.1 ESE 2 7 1 4 1016.2 1016.3 0.4
01/10:00pm 5.6 4.5 5.2 97 0.2 CALM 0 0 0 0 1016.9 1017.0 0.4
01/09:30pm 5.3 4.2 4.9 97 0.2 CALM 0 6 0 3 1016.3 1016.4 0.4
01/09:00pm 5.9 4.9 5.5 97 0.2 CALM 0 0 0 0 1016.6 1016.7 0.4
01/08:30pm 5.9 4.8 5.3 96 0.3 CALM 0 0 0 0 1016.1 1016.2 0.4
01/08:00pm 6.6 5.7 5.9 95 0.3 CALM 0 0 0 0 1016.1 1016.2 0.4
01/07:30pm 7.2 6.4 6.3 94 0.4 CALM 0 0 0 0 1016.3 1016.4 0.4
01/07:00pm 7.1 6.2 5.9 92 0.5 CALM 0 0 0 0 1016.0 1016.1 0.4
01/06:30pm 7.6 6.7 6.2 91 0.6 CALM 0 0 0 0 1016.2 1016.3 0.4
01/06:00pm 7.4 6.4 5.7 89 0.8 CALM 0 0 0 0 1015.6 1015.7 0.4
01/05:30pm 8.4 7.5 6.0 85 1.1 CALM 0 0 0 0 1015.3 1015.4 0.4
01/05:00pm 9.0 8.1 5.9 81 1.4 CALM 0 0 0 0 1014.8 1014.9 0.4
01/04:30pm 10.1 9.0 5.3 72 2.2 CALM 0 0 0 0 1014.6 1014.7 0.4
01/04:00pm 10.3 9.1 4.7 68 2.5 CALM 0 4 0 2 1014.8 1014.9 0.4
01/03:30pm 10.2 8.5 4.1 66 2.7 SSW 2 7 1 4 1014.7 1014.8 0.4
01/03:00pm 10.3 7.8 4.9 69 2.4 SSW 7 11 4 6 1014.6 1014.7 0.4
01/02:30pm 10.2 9.2 5.8 74 2.0 CALM 0 6 0 3 1014.2 1014.3 0.4
01/02:00pm 10.1 9.3 6.3 77 1.8 CALM 0 7 0 4 1014.3 1014.4 0.4
01/01:30pm 9.9 8.8 7.0 82 1.4 NW 2 7 1 4 1014.3 1014.4 0.4
01/01:00pm 9.6 7.8 7.0 84 1.2 NNE 6 11 3 6 1014.3 1014.4 0.4
01/12:30pm 9.4 7.7 7.7 89 0.8 NNE 6 9 3 5 1014.4 1014.5 0.4
01/12:00pm 9.2 8.1 8.3 94 0.4 NNW 4 7 2 4 1014.9 1015.0 0.4
01/11:30am 9.2 8.9 8.6 96 0.3 CALM 0 2 0 1 1015.1 1015.2 0.4
01/11:00am 8.7 6.9 7.9 95 0.4 WSW 7 11 4 6 1015.0 1015.1 0.4
01/10:30am 8.8 5.5 7.9 94 0.4 SW 15 20 8 11 1014.7 1014.8 0.4
01/10:00am 9.6 6.0 8.2 91 0.7 W 17 24 9 13 1013.7 1013.9 0.0
01/09:30am 10.1 5.5 8.2 88 0.9 WNW 22 33 12 18 1013.1 1013.3 0.0
01/09:00am 10.5 8.6 8.9 90 0.8 NW 9 28 5 15 1011.8 1012.0 4.2
01/08:30am 10.0 7.5 8.4 90 0.8 NNW 11 24 6 13 1011.3 1011.5 4.0
01/08:00am 10.4 6.1 8.0 85 1.2 N 20 33 11 18 1010.8 1011.0 3.4
01/07:30am 10.7 7.0 7.9 83 1.4 NNW 17 30 9 16 1010.4 1010.6 1.8
01/07:00am 11.3 7.4 7.2 76 2.0 NNW 17 33 9 18 1010.3 1010.5 0.2
01/06:30am 12.1 6.7 6.4 68 2.7 NNW 24 39 13 21 1009.2 1009.4 0.0
01/06:00am 12.2 6.1 6.5 68 2.7 N 28 46 15 25 1008.9 1009.1 0.0
01/05:58am 12.3 6.2 6.6 68 2.7 N 28 46 15 25 1008.9 1009.1 0.0
01/05:30am 11.9 7.3 6.6 70 2.5 N 20 33 11 18 1008.9 1009.1 0.0
01/05:00am 11.7 6.0 6.6 71 2.4 N 26 44 14 24 1009.2 1009.4 0.0
01/04:50am 11.8 5.7 6.5 70 2.5 N 28 50 15 27 1009.3 1009.5 0.0
01/04:30am 11.6 5.8 6.1 69 2.6 N 26 43 14 23 1009.3 1009.5 0.0
01/04:13am 11.6 5.3 5.7 67 2.8 N 28 46 15 25 1009.9 1010.1 0.0
01/04:00am 11.6 6.0 5.5 66 2.8 N 24 43 13 23 1010.1 1010.3 0.0
01/03:30am 11.4 4.6 5.3 66 2.8 N 30 48 16 26 1010.1 1010.3 0.0
01/03:00am 10.9 3.5 4.8 66 2.8 N 33 56 18 30 1010.7 1010.9 0.0
01/02:35am 10.8 3.4 4.0 63 3.0 N 32 52 17 28 1011.2 1011.4 0.0
01/02:30am 10.7 3.7 4.2 64 2.9 N 30 41 16 22 1011.4 1011.6 0.0
01/02:00am 10.5 2.8 3.5 62 3.1 N 33 56 18 30 1011.7 1011.9 0.0
01/01:46am 10.3 3.6 3.6 63 2.9 N 28 50 15 27 1012.2 1012.4 0.0
01/01:30am 10.4 4.0 3.2 61 3.1 N 26 39 14 21 1012.4 1012.6 0.0
01/01:00am 10.3 3.9 3.3 62 3.1 N 26 35 14 19 1012.7 1012.9 0.0
01/12:30am 10.0 4.0 3.1 62 3.0 N 24 39 13 21 1013.8 1014.0 0.0
01/12:00am 9.6 3.6 3.1 64 2.8 N 24 39 13 21 1014.5 1014.6 0.0
 
Date/Time
EST
Temp
°C
App
Temp
°C
Dew
Point
Rel
Hum
%
Delta-T
°C
Wind Press
QNH
hPa
Press
MSL
hPa
Rain
since 9 am
mm
Dir
 
Spd
km/h
Gust
km/h
Spd
kts
Gust
kts
31/11:30pm 9.8 4.1 2.9 62 3.0 NNW 22 37 12 20 1015.5 1015.6 0.0
31/11:00pm 9.9 3.9 3.4 64 2.8 N 24 41 13 22 1015.4 1015.5 0.0
31/10:30pm 9.9 3.9 3.4 64 2.8 NNW 24 37 13 20 1015.3 1015.4 0.0
31/10:00pm 9.8 3.0 3.3 64 2.8 N 28 44 15 24 1015.3 1015.4 0.0
31/09:30pm 10.2 3.4 3.0 61 3.1 N 28 52 15 28 1015.2 1015.3 0.0
31/09:27pm 10.1 3.3 2.9 61 3.1 N 28 46 15 25 1015.2 1015.3 0.0
31/09:00pm 9.9 3.8 2.7 61 3.1 N 24 39 13 21 1015.6 1015.7 0.0
31/08:30pm 9.6 3.5 2.9 63 2.9 N 24 35 13 19 1015.9 1016.0 0.0
31/08:00pm 9.6 4.4 3.6 66 2.6 N 20 35 11 19 1016.0 1016.1 0.0
31/07:30pm 9.6 5.0 3.6 66 2.6 N 17 32 9 17 1016.4 1016.5 0.0
31/07:00pm 9.5 5.5 2.6 62 2.9 N 13 24 7 13 1016.8 1016.9 0.0
31/06:30pm 9.6 5.1 2.2 60 3.1 N 15 24 8 13 1016.4 1016.5 0.0
31/06:00pm 9.8 5.8 2.6 61 3.1 NNW 13 24 7 13 1016.4 1016.5 0.0
31/05:30pm 10.2 5.9 3.3 62 3.0 NNW 15 26 8 14 1016.2 1016.3 0.0
31/05:00pm 11.2 7.0 3.7 60 3.3 N 15 20 8 11 1015.9 1016.0 0.0
31/04:30pm 11.8 6.6 3.8 58 3.6 NNW 20 30 11 16 1016.0 1016.1 0.0
31/04:00pm 12.0 6.9 4.0 58 3.6 N 20 32 11 17 1016.6 1016.7 0.0
31/03:30pm 12.0 5.9 3.0 54 4.0 N 24 32 13 17 1016.9 1017.0 0.0
31/03:00pm 12.5 7.4 4.0 56 3.8 N 20 33 11 18 1017.1 1017.2 0.0
31/02:30pm 12.8 7.9 4.0 55 4.0 N 19 30 10 16 1017.2 1017.3 0.0
31/02:00pm 12.8 10.3 4.5 57 3.8 NNW 7 11 4 6 1017.7 1017.8 0.0
31/01:30pm 12.1 9.2 4.6 60 3.4 N 9 17 5 9 1018.4 1018.6 0.0
31/01:00pm 11.7 8.8 4.7 62 3.2 NNE 9 13 5 7 1019.2 1019.4 0.0
31/12:30pm 11.2 7.8 4.0 61 3.2 N 11 19 6 10 1019.9 1020.1 0.0
31/12:00pm 10.9 8.0 4.8 66 2.8 NNE 9 13 5 7 1020.7 1020.9 0.0
31/11:30am 10.5 7.6 4.6 67 2.7 NNW 9 15 5 8 1021.4 1021.6 0.0
31/11:00am 9.6 7.0 4.4 70 2.3 NNW 7 13 4 7 1021.6 1021.8 0.0
31/10:30am 8.2 5.6 4.2 76 1.8 NNW 7 11 4 6 1021.9 1022.1 0.0
31/10:00am 7.7 7.1 7.6 99 0.0 CALM 0 0 0 0 1021.7 1021.9 0.0
31/09:30am 4.6 3.4 4.5 99 0.0 CALM 0 0 0 0 1021.8 1022.0 0.0
31/09:00am 0.5 -1.4 0.4 99 0.0 CALM 0 0 0 0 1021.8 1022.0 1.2
31/08:30am -0.1 -2.1 -0.2 99 0.0 CALM 0 0 0 0 1021.7 1021.9 1.2
31/08:00am -1.0 -3.5 -1.3 98 0.1 S 2 7 1 4 1021.5 1021.7 1.2
31/07:30am -1.2 -3.4 -1.5 98 0.0 CALM 0 0 0 0 1021.0 1021.2 1.2
31/07:00am -1.2 -3.4 -1.5 98 0.0 CALM 0 0 0 0 1020.6 1020.8 1.2
31/06:30am -1.0 -3.2 -1.3 98 0.1 CALM 0 0 0 0 1020.3 1020.5 1.2

Other Formats:

Comma delimited format used in spreadsheet applications
http://www.bom.gov.au/fwo/IDV60801/IDV60801.94864.axf

JavaScript Object Notation format (JSON) in row-major order
http://www.bom.gov.au/fwo/IDV60801/IDV60801.94864.json